Time;durP1;ratioP1;P1;durP2;ratioP2;P2;SDS_P1;SDS_P2;PMS_P1;PMS_P2;Temp;Humidity;BMP_temperature;BMP_pressure;BME280_temperature;BME280_humidity;BME280_pressure;Samples;Min_cycle;Max_cycle;Signal;HPM_P1;HPM_P2
2021/04/12 00:00:13;;;;;;;20.17;5.37;;;;;;;11.27;45.13;101521.78;1723318;83;21166;-86
2021/04/12 00:02:47;;;;;;;21.97;5.50;;;;;;;11.27;45.33;101521.78;1728926;82;21766;-87
2021/04/12 00:05:45;;;;;;;16.10;5.40;;;;;;;11.17;45.67;101511.31;1723530;82;21170;-86
2021/04/12 00:08:44;;;;;;;22.45;6.45;;;;;;;11.26;45.79;101515.26;1728766;82;21118;-86
2021/04/12 00:11:48;;;;;;;16.17;5.65;;;;;;;11.12;46.62;101508.82;1720114;83;21067;-87
2021/04/12 00:14:19;;;;;;;16.32;5.87;;;;;;;11.18;47.07;101505.69;1723038;83;21552;-86
2021/04/12 00:17:04;;;;;;;21.00;5.65;;;;;;;11.16;47.35;101507.80;1722915;83;21222;-86
2021/04/12 00:19:56;;;;;;;17.00;5.00;;;;;;;11.17;47.54;101496.47;1721403;83;21133;-87
2021/04/12 00:22:43;;;;;;;17.87;4.95;;;;;;;11.14;48.13;101493.19;1722971;82;21168;-86
2021/04/12 00:25:20;;;;;;;14.75;5.30;;;;;;;11.14;48.34;101497.23;1720542;83;21587;-86
2021/04/12 00:28:00;;;;;;;18.45;6.37;;;;;;;11.18;48.80;101489.50;1722901;82;21191;-87
2021/04/12 00:30:34;;;;;;;17.20;5.05;;;;;;;11.11;49.46;101481.53;1722437;83;21213;-87
2021/04/12 00:33:18;;;;;;;19.37;5.17;;;;;;;11.08;49.74;101494.69;1718984;83;21156;-86
2021/04/12 00:35:59;;;;;;;14.40;5.08;;;;;;;11.07;50.55;101497.11;1722391;83;28538;-86
2021/04/12 00:38:54;;;;;;;17.25;5.08;;;;;;;11.09;50.94;101493.12;1722541;83;21228;-87
2021/04/12 00:42:09;;;;;;;13.83;5.08;;;;;;;11.10;51.40;101489.35;1722655;83;21250;-87
2021/04/12 00:44:59;;;;;;;15.72;5.50;;;;;;;11.03;51.77;101475.20;1722381;82;21146;-86
2021/04/12 00:47:48;;;;;;;11.57;4.45;;;;;;;11.03;52.57;101460.87;1718583;83;21378;-85
2021/04/12 00:50:20;;;;;;;17.25;5.62;;;;;;;11.03;53.20;101454.13;1720341;83;21574;-86
2021/04/12 00:53:29;;;;;;;16.02;5.17;;;;;;;11.01;54.42;101443.59;1722500;83;21142;-86
2021/04/12 00:56:01;;;;;;;18.10;5.95;;;;;;;11.06;54.96;101448.25;1724671;83;21189;-86
2021/04/12 00:59:01;;;;;;;17.00;5.67;;;;;;;11.01;55.68;101434.16;1727487;83;21999;-86
2021/04/12 01:01:50;;;;;;;26.52;6.30;;;;;;;10.99;56.88;101440.84;1668778;86;21655;-86
2021/04/12 01:04:38;;;;;;;16.32;5.53;;;;;;;10.98;57.34;101435.17;1668893;86;21209;-86
2021/04/12 01:07:31;;;;;;;19.37;6.87;;;;;;;10.95;58.78;101440.52;1668863;86;21562;-86
2021/04/12 01:10:37;;;;;;;13.35;5.08;;;;;;;11.00;59.58;101439.78;1669453;86;21164;-86
2021/04/12 01:13:36;;;;;;;16.12;6.08;;;;;;;10.94;60.07;101440.75;1580790;89;21735;-86
2021/04/12 01:16:22;;;;;;;15.28;5.67;;;;;;;10.94;61.01;101438.05;1574713;90;21278;-86
2021/04/12 01:19:31;;;;;;;17.50;6.10;;;;;;;10.88;61.66;101443.37;1574716;89;21167;-86
2021/04/12 01:22:47;;;;;;;15.88;6.33;;;;;;;10.97;61.09;101437.56;1574857;90;21191;-86
2021/04/12 01:26:04;;;;;;;13.65;5.22;;;;;;;10.84;62.77;101431.41;1570786;91;21145;-86
2021/04/12 01:29:15;;;;;;;23.15;6.47;;;;;;;10.80;63.73;101432.96;1554198;92;22075;-87
2021/04/12 01:32:24;;;;;;;22.98;6.87;;;;;;;10.79;65.25;101434.53;1553855;92;21260;-86
2021/04/12 01:35:10;;;;;;;23.90;7.42;;;;;;;10.78;67.09;101426.98;1554142;92;21264;-86
2021/04/12 01:38:04;;;;;;;26.45;7.22;;;;;;;10.78;68.88;101426.98;1536188;92;21223;-87
2021/04/12 01:41:13;;;;;;;24.15;5.85;;;;;;;10.73;70.76;101425.53;1499666;94;21286;-86
2021/04/12 01:44:03;;;;;;;17.50;5.35;;;;;;;10.72;72.77;101428.48;1520216;94;21316;-88
2021/04/12 01:46:42;;;;;;;19.90;6.22;;;;;;;10.68;73.67;101424.91;1511314;94;21302;-87
2021/04/12 01:49:53;;;;;;;16.57;6.17;;;;;;;10.66;75.10;101427.02;1494981;94;21230;-86
2021/04/12 01:53:13;;;;;;;17.82;6.53;;;;;;;10.65;77.62;101428.62;1511418;94;21281;-87
2021/04/12 01:56:06;;;;;;;18.75;6.70;;;;;;;10.66;80.91;101434.30;1511567;94;21178;-86
2021/04/12 01:58:49;;;;;;;18.90;5.80;;;;;;;10.65;81.93;101433.48;1511472;94;21514;-87
2021/04/12 02:01:39;;;;;;;19.17;6.03;;;;;;;10.66;81.53;101439.16;1512812;92;21690;-86
2021/04/12 02:04:32;;;;;;;18.07;6.30;;;;;;;10.59;82.42;101436.30;1511525;94;21197;-86
2021/04/12 02:07:25;;;;;;;24.37;5.60;;;;;;;10.55;83.62;101437.31;1511410;94;21424;-87
2021/04/12 02:10:14;;;;;;;10.82;4.92;;;;;;;10.56;83.54;101429.53;1503939;95;21145;-86
2021/04/12 02:13:02;;;;;;;15.00;4.47;;;;;;;10.55;86.46;101417.09;1500366;93;21302;-87
2021/04/12 02:15:51;;;;;;;16.57;6.00;;;;;;;10.51;87.00;101419.17;1477968;95;21278;-86
2021/04/12 02:18:48;;;;;;;26.62;4.85;;;;;;;10.53;90.61;101413.84;1505279;94;21245;-86
2021/04/12 02:21:48;;;;;;;20.10;6.97;;;;;;;10.48;92.10;101418.31;1517196;94;21155;-86
2021/04/12 02:24:44;;;;;;;22.05;6.10;;;;;;;10.48;98.39;101416.42;1475087;97;21270;-86
2021/04/12 02:27:24;;;;;;;15.65;6.62;;;;;;;10.39;100.00;101417.33;1475148;96;21389;-86
2021/04/12 02:30:05;;;;;;;19.90;5.28;;;;;;;10.33;100.00;101414.23;1411970;101;21233;-87
2021/04/12 02:33:04;;;;;;;21.85;6.03;;;;;;;10.23;100.00;101420.20;1411464;101;21604;-88
2021/04/12 02:35:47;;;;;;;12.18;5.60;;;;;;;10.09;100.00;101421.52;1459726;98;21575;-87
2021/04/12 02:38:34;;;;;;;24.32;6.25;;;;;;;9.90;100.00;101424.84;1438315;98;21291;-86
2021/04/12 02:41:37;;;;;;;27.05;6.55;;;;;;;9.83;100.00;101425.50;1377056;102;21760;-86
2021/04/12 02:44:36;;;;;;;12.68;5.62;;;;;;;9.83;100.00;101429.55;1375349;104;21442;-87
2021/04/12 02:47:27;;;;;;;17.75;6.08;;;;;;;9.68;100.00;101435.92;1396024;101;21359;-87
2021/04/12 02:50:07;;;;;;;21.02;6.87;;;;;;;9.68;100.00;101428.66;1418240;101;21190;-87
2021/04/12 02:53:01;;;;;;;19.92;6.30;;;;;;;9.77;100.00;101429.13;1419187;101;21154;-86
2021/04/12 02:56:07;;;;;;;22.27;6.90;;;;;;;9.71;100.00;101431.41;1420428;100;21268;-87
2021/04/12 02:58:41;;;;;;;18.42;6.78;;;;;;;9.71;100.00;101428.19;1420436;101;21659;-86
2021/04/12 03:01:37;;;;;;;21.05;5.67;;;;;;;9.74;100.00;101434.45;1438243;99;21233;-87
2021/04/12 03:04:19;;;;;;;20.32;6.37;;;;;;;9.70;100.00;101439.98;1444263;99;21249;-86
2021/04/12 03:07:02;;;;;;;19.77;6.13;;;;;;;9.76;100.00;101437.73;1460905;94;21663;-87
2021/04/12 03:10:13;;;;;;;19.67;6.10;;;;;;;9.74;100.00;101437.67;1512147;94;21284;-87
2021/04/12 03:12:57;;;;;;;18.25;6.67;;;;;;;9.71;100.00;101443.53;1511424;94;21078;-87
2021/04/12 03:15:56;;;;;;;19.55;6.67;;;;;;;9.82;100.00;101437.84;1507082;95;21242;-86
2021/04/12 03:18:36;;;;;;;21.65;6.62;;;;;;;9.74;100.00;101445.22;1545592;90;21318;-88
2021/04/12 03:21:41;;;;;;;24.07;7.25;;;;;;;9.81;100.00;101441.59;1517241;94;21712;-86
2021/04/12 03:24:29;;;;;;;22.20;6.00;;;;;;;9.86;100.00;101445.76;1513289;94;21678;-87
2021/04/12 03:27:52;;;;;;;23.95;6.40;;;;;;;9.92;100.00;101445.63;1522891;94;21495;-87
2021/04/12 03:30:35;;;;;;;16.40;6.35;;;;;;;9.88;100.00;101447.67;1523155;94;21270;-87
2021/04/12 03:33:26;;;;;;;14.18;5.80;;;;;;;9.91;100.00;101452.08;1538297;92;21167;-86
2021/04/12 03:36:23;;;;;;;23.22;6.00;;;;;;;9.93;100.00;101447.27;1548156;91;21253;-86
2021/04/12 03:39:11;;;;;;;16.57;6.40;;;;;;;9.96;100.00;101449.48;1548098;91;21979;-86
2021/04/12 03:42:02;;;;;;;28.67;6.85;;;;;;;9.95;100.00;101450.55;1548076;92;21610;-87
2021/04/12 03:45:06;;;;;;;26.75;7.25;;;;;;;9.89;100.00;101446.10;1545376;92;21392;-86
2021/04/12 03:47:55;;;;;;;17.57;7.33;;;;;;;10.15;100.00;101443.46;1528795;92;21212;-87
2021/04/12 03:50:43;;;;;;;28.85;7.50;;;;;;;10.00;100.00;101455.25;1545757;92;21169;-86
2021/04/12 03:54:02;;;;;;;31.80;8.73;;;;;;;10.07;100.00;101453.23;1548160;92;21246;-87
2021/04/12 03:56:42;;;;;;;33.25;8.25;;;;;;;10.21;100.00;101449.78;1545154;92;21289;-87
2021/04/12 03:59:26;;;;;;;28.62;9.05;;;;;;;10.13;100.00;101455.52;1620984;87;21474;-86
2021/04/12 04:02:23;;;;;;;21.70;8.30;;;;;;;10.26;100.00;101443.13;1635605;87;21659;-86
2021/04/12 04:05:22;;;;;;;35.40;9.13;;;;;;;10.20;100.00;101445.42;1639171;87;21195;-87
2021/04/12 04:08:15;;;;;;;27.05;9.28;;;;;;;10.16;100.00;101453.17;1639379;87;21223;-87
2021/04/12 04:11:19;;;;;;;35.90;8.50;;;;;;;10.32;100.00;101455.69;1564507;91;21208;-87
2021/04/12 04:14:13;;;;;;;23.73;8.70;;;;;;;10.46;100.00;101457.60;1577045;88;21196;-86
2021/04/12 04:17:32;;;;;;;21.52;7.10;;;;;;;10.40;100.00;101456.67;1596984;89;21224;-88
2021/04/12 04:20:37;;;;;;;25.72;8.45;;;;;;;10.32;100.00;101453.53;1597175;89;21669;-86
2021/04/12 04:23:30;;;;;;;27.67;9.55;;;;;;;10.38;100.00;101455.27;1597189;89;21294;-87
2021/04/12 04:26:29;;;;;;;28.45;8.85;;;;;;;10.42;100.00;101457.80;1597277;89;27627;-86
2021/04/12 04:29:25;;;;;;;30.50;9.05;;;;;;;10.32;100.00;101459.73;1593896;89;21369;-86
2021/04/12 04:32:34;;;;;;;31.10;9.63;;;;;;;10.34;100.00;101455.47;1594778;89;21483;-86
2021/04/12 04:35:18;;;;;;;29.32;9.85;;;;;;;10.35;100.00;101453.05;1597176;89;21192;-86
2021/04/12 04:38:21;;;;;;;27.10;9.68;;;;;;;10.33;100.00;101449.80;1583281;90;22036;-86
2021/04/12 04:41:11;;;;;;;27.75;9.45;;;;;;;10.26;100.00;101459.30;1629559;88;21216;-86
2021/04/12 04:43:57;;;;;;;31.85;9.53;;;;;;;10.49;100.00;101451.73;1629413;88;21201;-85
2021/04/12 04:47:03;;;;;;;31.57;10.28;;;;;;;10.44;100.00;101454.31;1629794;87;21239;-86
2021/04/12 04:49:40;;;;;;;32.42;10.20;;;;;;;10.37;100.00;101449.06;1627828;88;21562;-86
2021/04/12 04:52:31;;;;;;;31.95;10.38;;;;;;;10.50;100.00;101447.16;1605694;89;21245;-86
2021/04/12 04:55:22;;;;;;;36.13;11.73;;;;;;;10.36;100.00;101444.75;1605853;89;21083;-86
2021/04/12 04:58:17;;;;;;;47.03;12.73;;;;;;;10.41;100.00;101443.52;1605666;89;21173;-86
2021/04/12 05:01:06;;;;;;;33.67;10.25;;;;;;;10.41;100.00;101439.47;1608714;87;21725;-86
2021/04/12 05:03:47;;;;;;;33.08;11.10;;;;;;;10.42;100.00;101441.63;1603899;89;21143;-85
2021/04/12 05:06:47;;;;;;;32.00;10.45;;;;;;;10.53;100.00;101442.64;1560426;91;21199;-86
2021/04/12 05:09:30;;;;;;;33.08;11.30;;;;;;;10.45;100.00;101442.50;1525669;93;21014;-87
2021/04/12 05:12:35;;;;;;;31.45;12.20;;;;;;;10.52;100.00;101439.67;1522985;94;21297;-86
2021/04/12 05:15:15;;;;;;;34.63;9.70;;;;;;;10.54;100.00;101430.83;1524450;94;21676;-87
2021/04/12 05:18:04;;;;;;;27.10;10.40;;;;;;;10.63;100.00;101438.82;1523432;94;21147;-86
2021/04/12 05:21:04;;;;;;;28.17;10.08;;;;;;;10.68;100.00;101438.40;1477550;97;21287;-86
2021/04/12 05:23:51;;;;;;;35.05;10.18;;;;;;;10.71;100.00;101427.66;1477385;97;21721;-86
2021/04/12 05:26:40;;;;;;;36.20;10.40;;;;;;;10.80;100.00;101427.56;1477385;97;21211;-87
2021/04/12 05:29:45;;;;;;;37.38;9.65;;;;;;;10.76;100.00;101435.02;1469993;97;21214;-87
2021/04/12 05:32:38;;;;;;;32.15;11.35;;;;;;;10.86;100.00;101434.69;1443483;99;21242;-86
2021/04/12 05:35:31;;;;;;;43.63;11.03;;;;;;;10.94;100.00;101428.08;1449457;98;21387;-87
2021/04/12 05:38:05;;;;;;;23.55;6.92;;;;;;;10.89;100.00;101437.44;1449150;97;21379;-86
2021/04/12 05:41:08;;;;;;;33.75;9.85;;;;;;;10.82;100.00;101444.30;1449482;97;21243;-87
2021/04/12 05:44:08;;;;;;;37.95;12.15;;;;;;;11.02;100.00;101439.02;1462819;97;21722;-87
2021/04/12 05:46:55;;;;;;;40.40;10.80;;;;;;;10.88;100.00;101446.06;1477168;95;21278;-87
2021/04/12 05:49:47;;;;;;;34.90;11.20;;;;;;;11.06;100.00;101450.44;1476739;95;21348;-86
2021/04/12 05:52:50;;;;;;;34.40;11.00;;;;;;;11.28;100.00;101445.16;1476621;95;21265;-86
2021/04/12 05:55:57;;;;;;;33.98;11.18;;;;;;;11.31;100.00;101446.55;1476662;95;21233;-86
2021/04/12 05:58:37;;;;;;;35.98;10.70;;;;;;;11.50;100.00;101442.58;1461789;95;21253;-86
2021/04/12 06:01:43;;;;;;;25.48;9.53;;;;;;;11.34;100.00;101440.67;1454883;97;21169;-85
2021/04/12 06:04:47;;;;;;;40.25;10.08;;;;;;;11.42;100.00;101448.91;1452743;96;21229;-86
2021/04/12 06:07:40;;;;;;;34.23;10.18;;;;;;;11.57;100.00;101450.50;1486755;96;21698;-87
2021/04/12 06:10:17;;;;;;;29.65;9.43;;;;;;;11.49;100.00;101456.30;1488289;96;21293;-86
2021/04/12 06:13:18;;;;;;;33.48;11.00;;;;;;;11.26;100.00;101449.97;1488084;95;21278;-85
2021/04/12 06:16:20;;;;;;;35.75;10.75;;;;;;;11.21;100.00;101447.73;1514183;91;21527;-85
2021/04/12 06:19:29;;;;;;;30.35;9.20;;;;;;;11.47;100.00;101458.41;1599482;89;21220;-85
2021/04/12 06:22:37;;;;;;;33.95;10.88;;;;;;;11.12;100.00;101463.50;1602604;88;21244;-86
2021/04/12 06:25:41;;;;;;;34.15;10.63;;;;;;;11.23;100.00;101462.59;1602684;89;21205;-85
2021/04/12 06:28:39;;;;;;;34.48;11.60;;;;;;;11.69;100.00;101466.62;1602830;88;21288;-85
2021/04/12 06:31:29;;;;;;;38.88;11.95;;;;;;;11.65;100.00;101462.25;1602651;89;21624;-85
2021/04/12 06:34:21;;;;;;;42.90;13.18;;;;;;;11.83;100.00;101463.34;1542966;92;21317;-85
2021/04/12 06:37:07;;;;;;;42.43;13.95;;;;;;;12.33;100.00;101461.66;1609685;89;21219;-86
2021/04/12 06:39:57;;;;;;;32.42;13.30;;;;;;;12.23;100.00;101465.02;1581632;89;21463;-85
2021/04/12 06:43:13;;;;;;;38.28;14.07;;;;;;;12.33;100.00;101470.30;1577699;90;21284;-86
2021/04/12 06:46:11;;;;;;;43.25;17.23;;;;;;;12.64;100.00;101467.44;1578180;90;21235;-85
2021/04/12 06:49:09;;;;;;;51.30;16.87;;;;;;;12.72;100.00;101473.77;1578216;90;21199;-86
2021/04/12 06:52:14;;;;;;;43.70;15.40;;;;;;;12.23;100.00;101465.55;1573744;90;21640;-85
2021/04/12 06:55:03;;;;;;;42.27;15.75;;;;;;;12.43;100.00;101469.88;1578281;90;21188;-86
2021/04/12 06:58:08;;;;;;;49.18;16.77;;;;;;;12.34;100.00;101467.87;1578369;90;21208;-85
2021/04/12 07:01:00;;;;;;;56.23;19.77;;;;;;;12.72;100.00;101476.47;1559494;91;21183;-85
2021/04/12 07:04:09;;;;;;;53.33;19.27;;;;;;;12.25;100.00;101471.00;1589032;88;21953;-84
2021/04/12 07:07:09;;;;;;;51.83;16.48;;;;;;;12.59;100.00;101472.27;1610295;89;21203;-85
2021/04/12 07:10:10;;;;;;;47.25;18.17;;;;;;;12.81;100.00;101476.84;1593739;89;21268;-85
2021/04/12 07:12:52;;;;;;;47.83;17.05;;;;;;;12.91;100.00;101469.67;1592111;90;21244;-86
2021/04/12 07:15:46;;;;;;;48.63;16.80;;;;;;;12.52;100.00;101460.80;1581874;90;21218;-85
2021/04/12 07:18:49;;;;;;;;;;;;;;;13.10;100.00;101467.42;1582323;90;21256;-85
2021/04/12 07:22:06;;;;;;;39.60;14.90;;;;;;;13.08;100.00;101468.20;1571047;91;20542;-85
2021/04/12 07:25:11;;;;;;;45.35;15.32;;;;;;;12.84;100.00;101473.63;1582430;90;21532;-85
2021/04/12 07:28:08;;;;;;;49.03;14.58;;;;;;;13.52;100.00;101469.47;1580466;90;21257;-85
2021/04/12 07:31:03;;;;;;;40.85;13.58;;;;;;;13.21;100.00;101476.47;1567983;91;21235;-86
2021/04/12 07:33:59;;;;;;;47.10;13.75;;;;;;;13.28;100.00;101478.45;1582260;90;21677;-85
2021/04/12 07:36:43;;;;;;;36.48;14.03;;;;;;;13.19;100.00;101472.66;1582125;90;21206;-85
2021/04/12 07:39:36;;;;;;;47.23;15.13;;;;;;;12.73;100.00;101471.33;1555153;92;21745;-86
2021/04/12 07:42:41;;;;;;;35.55;13.00;;;;;;;12.94;100.00;101468.32;1582278;90;21607;-85
2021/04/12 07:45:48;;;;;;;35.65;13.43;;;;;;;12.53;100.00;101462.45;1579604;86;21672;-86
2021/04/12 07:48:52;;;;;;;41.85;12.88;;;;;;;12.78;100.00;101472.75;1650094;86;21573;-85
2021/04/12 07:51:45;;;;;;;32.28;11.05;;;;;;;13.11;100.00;101467.70;1595347;89;21202;-85
2021/04/12 07:54:39;;;;;;;38.28;10.50;;;;;;;13.11;100.00;101470.40;1551982;90;21179;-85
2021/04/12 07:57:47;;;;;;;29.07;9.60;;;;;;;13.15;100.00;101472.89;1483831;95;21231;-85
2021/04/12 08:00:50;;;;;;;25.02;10.65;;;;;;;13.03;100.00;101470.87;1483992;95;21255;-85
2021/04/12 08:03:38;;;;;;;23.13;9.80;;;;;;;13.18;100.00;101464.27;1484032;95;21732;-86
2021/04/12 08:06:43;;;;;;;29.02;10.58;;;;;;;13.07;100.00;101467.13;1483925;96;21148;-85
2021/04/12 08:09:48;;;;;;;28.05;10.00;;;;;;;13.05;100.00;101466.01;1483784;96;21342;-85
2021/04/12 08:12:47;;;;;;;29.60;10.30;;;;;;;13.79;100.00;101463.98;1483894;95;21251;-87
2021/04/12 08:16:00;;;;;;;28.77;8.50;;;;;;;14.18;100.00;101462.91;1411647;100;21209;-85
2021/04/12 08:18:40;;;;;;;22.45;7.55;;;;;;;13.55;100.00;101463.53;1431964;100;21696;-85
2021/04/12 08:21:33;;;;;;;22.75;6.62;;;;;;;13.92;100.00;101450.55;1410757;100;21306;-85
2021/04/12 08:24:25;;;;;;;23.98;7.65;;;;;;;14.42;100.00;101457.88;1432308;98;21396;-85
2021/04/12 08:27:38;;;;;;;28.23;10.10;;;;;;;14.60;100.00;101466.93;1385018;102;21253;-85
2021/04/12 08:30:33;;;;;;;17.17;6.95;;;;;;;14.78;100.00;101460.75;1401968;101;21295;-85
2021/04/12 08:33:27;;;;;;;19.40;7.45;;;;;;;15.37;100.00;101465.21;1377308;103;21237;-85
2021/04/12 08:36:33;;;;;;;15.93;5.92;;;;;;;15.65;96.47;101466.59;1451917;98;21242;-85
2021/04/12 08:39:45;;;;;;;12.35;5.42;;;;;;;15.52;96.19;101469.03;1451763;98;21221;-85
2021/04/12 08:42:35;;;;;;;15.23;5.80;;;;;;;15.06;97.29;101461.66;1449123;98;21262;-86
2021/04/12 08:45:23;;;;;;;13.18;5.53;;;;;;;14.47;100.00;101464.66;1424080;100;21303;-86
2021/04/12 08:48:19;;;;;;;18.45;7.72;;;;;;;14.58;100.00;101464.20;1424092;100;21229;-86
2021/04/12 08:51:05;;;;;;;22.67;7.97;;;;;;;14.45;100.00;101464.94;1482144;96;21668;-86
2021/04/12 08:53:59;;;;;;;21.45;7.72;;;;;;;15.04;100.00;101456.22;1491958;94;21672;-87
2021/04/12 08:56:36;;;;;;;;;;;;;;;15.34;97.14;101457.61;1464545;97;21754;-86
2021/04/12 08:59:29;;;;;;;22.90;7.33;;;;;;;15.82;93.92;101443.77;1462311;98;20269;-86
2021/04/12 09:02:35;;;;;;;18.57;7.37;;;;;;;16.16;92.12;101441.25;1462166;98;21764;-86
2021/04/12 09:05:41;;;;;;;15.83;7.03;;;;;;;15.76;90.51;101447.03;1511075;93;21566;-86
2021/04/12 09:08:46;;;;;;;16.95;6.83;;;;;;;15.54;94.22;101443.22;1535541;93;21197;-86
2021/04/12 09:12:03;;;;;;;16.67;6.35;;;;;;;15.99;90.55;101444.28;1535782;93;21220;-85
2021/04/12 09:15:04;;;;;;;16.35;6.83;;;;;;;15.53;92.54;101444.32;1535215;92;21402;-86
2021/04/12 09:18:12;;;;;;;17.85;6.40;;;;;;;15.00;91.60;101449.16;1514480;93;21994;-86
2021/04/12 09:21:17;;;;;;;17.07;7.17;;;;;;;15.21;92.00;101448.64;1539315;92;21233;-86
2021/04/12 09:24:06;;;;;;;19.10;7.50;;;;;;;15.21;92.00;101448.64;1553312;92;21614;-86
2021/04/12 09:27:22;;;;;;;18.42;7.37;;;;;;;15.17;93.51;101444.27;1555161;90;21184;-86
2021/04/12 09:30:15;;;;;;;15.28;6.95;;;;;;;15.11;94.09;101453.50;1553466;91;21145;-85
2021/04/12 09:33:36;;;;;;;17.92;6.78;;;;;;;15.05;94.21;101453.77;1553442;91;21198;-86
2021/04/12 09:36:45;;;;;;;15.98;6.20;;;;;;;14.46;96.56;101446.22;1575649;91;21256;-85
2021/04/12 09:39:48;;;;;;;20.00;7.75;;;;;;;14.46;96.56;101446.22;1535683;93;21275;-86
2021/04/12 09:43:05;;;;;;;16.50;6.85;;;;;;;15.09;93.51;101457.56;1535955;92;21221;-86
2021/04/12 09:45:55;;;;;;;14.65;6.97;;;;;;;15.09;93.51;101457.56;1535810;92;21555;-86
2021/04/12 09:49:17;;;;;;;19.12;7.05;;;;;;;14.65;95.96;101449.88;1535855;92;21261;-86
2021/04/12 09:51:55;;;;;;;25.62;6.47;;;;;;;14.89;92.67;101456.45;1535904;92;21261;-86
2021/04/12 09:54:49;;;;;;;20.08;7.83;;;;;;;15.17;91.26;101452.42;1533265;93;21205;-86
2021/04/12 09:57:37;;;;;;;23.12;7.50;;;;;;;15.42;89.17;101448.92;1535844;92;21094;-86
2021/04/12 10:00:20;;;;;;;14.73;6.65;;;;;;;15.14;92.10;101450.79;1530021;92;21219;-86
2021/04/12 10:03:17;;;;;;;16.20;5.67;;;;;;;15.72;88.35;101453.30;1508846;94;21263;-86
2021/04/12 10:06:28;;;;;;;17.17;6.60;;;;;;;15.53;83.55;101455.70;1511245;94;22582;-86
2021/04/12 10:09:32;;;;;;;14.28;5.53;;;;;;;15.53;83.55;101455.70;1510911;94;21318;-86
2021/04/12 10:12:27;;;;;;;13.68;5.22;;;;;;;15.76;81.52;101453.82;1517404;92;21239;-86
2021/04/12 10:15:25;;;;;;;18.30;7.33;;;;;;;15.31;86.74;101454.63;1488361;92;21240;-85
2021/04/12 10:17:59;;;;;;;17.55;7.28;;;;;;;15.24;88.87;101454.08;1582654;90;22064;-85
2021/04/12 10:20:33;;;;;;;19.92;7.67;;;;;;;15.34;88.92;101459.52;1582738;90;21712;-86
2021/04/12 10:23:04;;;;;;;19.73;6.20;;;;;;;15.63;85.29;101457.89;1558192;92;21487;-85
2021/04/12 10:25:56;;;;;;;18.85;7.17;;;;;;;15.64;84.35;101458.15;1562179;91;21337;-85
2021/04/12 10:28:32;;;;;;;19.48;5.95;;;;;;;15.80;83.63;101461.72;1562377;91;21202;-86
2021/04/12 10:31:07;;;;;;;17.98;6.60;;;;;;;15.88;80.76;101465.25;1562503;90;22092;-86
2021/04/12 10:33:58;;;;;;;12.45;5.35;;;;;;;15.75;81.34;101464.98;1562340;91;21265;-86
2021/04/12 10:36:49;;;;;;;11.28;4.85;;;;;;;15.39;82.93;101471.20;1562382;91;21178;-86
2021/04/12 10:39:33;;;;;;;10.75;4.95;;;;;;;15.47;83.48;101473.09;1562555;90;21104;-86
2021/04/12 10:42:21;;;;;;;10.38;4.50;;;;;;;15.46;83.90;101476.36;1585377;89;21267;-86
2021/04/12 10:44:53;;;;;;;16.37;6.00;;;;;;;15.74;82.74;101476.95;1584902;90;21151;-86
2021/04/12 10:47:36;;;;;;;50.30;17.35;;;;;;;15.80;80.75;101479.39;1581414;90;21207;-86
2021/04/12 10:50:16;;;;;;;16.05;6.58;;;;;;;15.72;82.49;101479.93;1585022;89;21216;-85
2021/04/12 10:53:13;;;;;;;15.23;6.00;;;;;;;15.58;82.95;101483.69;1585386;90;21734;-85
2021/04/12 10:55:45;;;;;;;11.48;4.85;;;;;;;15.56;85.80;101480.97;1585442;90;21271;-86
2021/04/12 10:58:39;;;;;;;15.35;6.45;;;;;;;15.97;81.45;101479.11;1585232;90;21220;-86
2021/04/12 11:01:34;;;;;;;11.78;4.28;;;;;;;15.90;82.08;101477.19;1545858;92;21200;-85
2021/04/12 11:04:15;;;;;;;6.12;3.20;;;;;;;16.04;83.42;101481.53;1525129;92;21223;-85
2021/04/12 11:07:07;;;;;;;7.85;3.05;;;;;;;16.38;79.95;101484.98;1505357;94;21229;-85
2021/04/12 11:09:51;;;;;;;9.63;2.90;;;;;;;15.58;82.43;101486.41;1519541;93;21143;-85
2021/04/12 11:12:43;;;;;;;;;;;;;;;15.94;80.83;101478.27;1519649;94;21296;-85
2021/04/12 11:15:33;;;;;;;23.18;6.40;;;;;;;15.90;81.78;101483.44;1523841;91;20292;-85
2021/04/12 11:18:30;;;;;;;13.98;5.17;;;;;;;16.10;80.49;101483.96;1501950;95;21230;-85
2021/04/12 11:21:26;;;;;;;10.25;4.78;;;;;;;16.04;82.03;101485.61;1537111;93;21230;-86
2021/04/12 11:24:22;;;;;;;14.80;5.03;;;;;;;15.94;81.88;101486.42;1538197;93;21250;-85
2021/04/12 11:27:40;;;;;;;16.37;5.20;;;;;;;16.13;80.81;101482.05;1537177;93;21248;-85
2021/04/12 11:30:33;;;;;;;10.85;3.75;;;;;;;16.28;81.16;101483.11;1538310;93;21061;-84
2021/04/12 11:33:40;;;;;;;10.60;3.87;;;;;;;16.17;81.17;101482.31;1538539;93;21232;-85
2021/04/12 11:36:49;;;;;;;7.58;3.20;;;;;;;16.24;79.80;101473.88;1515046;94;21333;-85
2021/04/12 11:39:26;;;;;;;7.08;2.83;;;;;;;16.11;81.01;101476.61;1500169;94;21281;-85
2021/04/12 11:42:02;;;;;;;4.12;2.20;;;;;;;16.04;81.10;101474.73;1534802;93;21254;-85
2021/04/12 11:44:38;;;;;;;5.70;2.60;;;;;;;15.88;81.87;101469.84;1515314;93;21242;-85
2021/04/12 11:47:28;;;;;;;7.15;3.50;;;;;;;15.39;85.91;101474.46;1534798;93;21093;-85
2021/04/12 11:50:29;;;;;;;6.85;2.85;;;;;;;15.96;82.27;101469.30;1533499;92;21300;-86
2021/04/12 11:53:37;;;;;;;11.97;3.70;;;;;;;15.74;82.97;101474.23;1528896;93;21297;-87
2021/04/12 11:56:32;;;;;;;8.15;3.90;;;;;;;15.79;83.44;101472.85;1503666;94;21500;-86
2021/04/12 11:59:12;;;;;;;7.08;3.60;;;;;;;15.84;82.60;101472.30;1559580;90;21188;-86
2021/04/12 12:01:59;;;;;;;7.33;3.60;;;;;;;15.61;85.56;101472.28;1563496;90;21236;-86
2021/04/12 12:04:56;;;;;;;8.18;4.15;;;;;;;15.93;82.82;101469.04;1596388;89;21632;-86
2021/04/12 12:07:49;;;;;;;11.38;4.58;;;;;;;16.07;82.08;101467.39;1610362;89;21230;-86
2021/04/12 12:10:50;;;;;;;9.33;4.20;;;;;;;16.04;81.99;101462.50;1622428;87;21213;-86
2021/04/12 12:13:54;;;;;;;8.20;3.87;;;;;;;16.15;80.07;101465.47;1477912;97;21681;-85
2021/04/12 12:16:42;;;;;;;13.22;5.25;;;;;;;16.08;81.03;101455.41;1477435;95;21273;-85
2021/04/12 12:19:25;;;;;;;14.25;6.85;;;;;;;16.22;80.43;101457.83;1477493;97;21766;-79
2021/04/12 12:22:15;;;;;;;15.30;5.87;;;;;;;16.39;79.09;101454.79;1476699;97;37638;-81
2021/04/12 12:25:05;;;;;;;17.65;6.58;;;;;;;16.32;79.74;101451.02;1472850;97;21469;-79
2021/04/12 12:27:38;;;;;;;10.32;4.90;;;;;;;16.46;80.03;101451.77;1498142;95;21224;-79
2021/04/12 12:30:25;;;;;;;;;;;;;;;16.48;79.28;101446.31;1500326;95;21139;-82
2021/04/12 12:33:08;;;;;;;11.10;4.97;;;;;;;16.22;80.59;101449.67;1498163;95;20305;-84
2021/04/12 12:35:55;;;;;;;16.00;6.57;;;;;;;16.41;79.63;101445.78;1498535;95;21632;-83
2021/04/12 12:38:44;;;;;;;15.88;6.20;;;;;;;16.44;78.36;101449.34;1422956;99;21305;-84
2021/04/12 12:41:17;;;;;;;17.65;7.30;;;;;;;16.61;77.01;101448.97;1417507;101;21658;-84
2021/04/12 12:43:45;;;;;;;12.35;6.55;;;;;;;16.51;77.09;101448.48;1409087;100;21233;-84
2021/04/12 12:46:25;;;;;;;15.20;6.17;;;;;;;16.27;78.33;101442.05;1406018;100;21229;-84
2021/04/12 12:48:58;;;;;;;18.90;7.00;;;;;;;16.30;79.59;101448.30;1426992;100;21274;-84
2021/04/12 12:51:30;;;;;;;17.60;7.95;;;;;;;16.32;78.76;101446.09;1449586;99;21295;-84
2021/04/12 12:54:13;;;;;;;17.52;8.23;;;;;;;16.31;79.51;101447.20;1446335;99;21212;-84
2021/04/12 12:56:43;;;;;;;19.12;8.63;;;;;;;16.26;79.39;101457.53;1426957;100;21257;-84
2021/04/12 12:59:20;;;;;;;26.60;8.78;;;;;;;16.17;80.02;101455.11;1448522;99;21273;-83
2021/04/12 13:01:47;;;;;;;19.25;8.18;;;;;;;16.22;81.01;101452.94;1442158;99;21287;-82
2021/04/12 13:04:26;;;;;;;23.55;9.05;;;;;;;16.44;79.98;101459.38;1443573;99;22442;-82
2021/04/12 13:06:56;;;;;;;28.67;10.93;;;;;;;16.21;81.17;101465.73;1443497;99;21268;-83
2021/04/12 13:09:36;;;;;;;22.07;8.95;;;;;;;16.56;78.80;101473.51;1443569;99;21609;-81